createdAt,value
2023-03-30T00:00:52.097Z,4.18
2023-03-30T00:03:19.732Z,4.85
2023-03-30T00:05:46.876Z,4.30
2023-03-30T00:08:14.698Z,4.57
2023-03-30T00:10:45.106Z,4.13
2023-03-30T00:13:13.280Z,4.55
2023-03-30T00:15:41.378Z,4.43
2023-03-30T00:18:09.485Z,4.38
2023-03-30T00:20:37.846Z,4.22
2023-03-30T00:23:04.817Z,4.38
2023-03-30T00:25:31.694Z,4.15
2023-03-30T00:27:58.519Z,4.28
2023-03-30T00:30:26.138Z,4.90
2023-03-30T00:32:54.069Z,4.70
2023-03-30T00:35:21.211Z,4.68
2023-03-30T00:37:49.803Z,5.13
2023-03-30T00:40:20.304Z,4.35
2023-03-30T00:42:47.688Z,4.35
2023-03-30T00:45:18.109Z,4.60
2023-03-30T00:47:54.600Z,4.60
2023-03-30T00:50:22.580Z,5.10
2023-03-30T00:52:52.528Z,4.40
2023-03-30T00:55:21.784Z,4.65
2023-03-30T00:57:49.685Z,4.93
2023-03-30T01:00:18.885Z,5.05
2023-03-30T01:02:57.425Z,4.78
2023-03-30T01:05:25.199Z,5.05
2023-03-30T01:07:52.275Z,5.03
2023-03-30T01:10:19.456Z,4.70
2023-03-30T01:12:46.289Z,4.55
2023-03-30T01:15:13.543Z,5.07
2023-03-30T01:17:53.392Z,4.90
2023-03-30T01:20:34.749Z,5.18
2023-03-30T01:23:35.601Z,5.20
2023-03-30T01:26:20.838Z,5.15
2023-03-30T01:28:53.433Z,5.00
2023-03-30T01:31:27.503Z,5.47
2023-03-30T01:34:16.314Z,5.53
2023-03-30T01:37:06.593Z,5.18
2023-03-30T01:39:48.584Z,5.53
2023-03-30T01:42:41.777Z,5.65
2023-03-30T01:45:42.427Z,5.15
2023-03-30T01:48:14.025Z,5.90
2023-03-30T01:50:43.385Z,5.68
2023-03-30T01:53:27.266Z,5.93
2023-03-30T01:56:06.355Z,5.28
2023-03-30T01:58:38.154Z,5.32
2023-03-30T02:01:07.291Z,5.50
2023-03-30T02:03:39.125Z,5.53
2023-03-30T02:06:14.693Z,5.10
2023-03-30T02:08:41.695Z,5.55
2023-03-30T02:11:09.242Z,4.97
2023-03-30T02:13:36.913Z,5.40
2023-03-30T02:16:07.716Z,5.30
2023-03-30T02:18:38.411Z,5.50
2023-03-30T02:21:05.766Z,5.13
2023-03-30T02:23:36.054Z,5.68
2023-03-30T02:26:03.019Z,4.72
2023-03-30T02:28:29.820Z,5.43
2023-03-30T02:30:57.067Z,4.82
2023-03-30T02:34:04.708Z,5.38
2023-03-30T02:36:45.596Z,5.07
2023-03-30T02:39:39.580Z,5.35
2023-03-30T02:42:20.725Z,5.47
2023-03-30T02:44:58.603Z,5.30
2023-03-30T02:47:34.450Z,4.50
2023-03-30T02:50:18.240Z,4.80
2023-03-30T02:53:10.625Z,4.82
2023-03-30T02:56:04.082Z,4.65
2023-03-30T02:59:03.923Z,4.95
2023-03-30T03:01:48.317Z,4.72
2023-03-30T03:04:17.678Z,4.60
2023-03-30T03:07:20.939Z,4.97
2023-03-30T03:09:48.294Z,5.43
2023-03-30T03:12:15.218Z,5.22
2023-03-30T03:14:43.453Z,5.65
2023-03-30T03:17:13.908Z,5.13
2023-03-30T03:19:44.803Z,5.30
2023-03-30T03:22:12.052Z,5.43
2023-03-30T03:24:39.868Z,4.40
2023-03-30T03:27:27.580Z,5.03
2023-03-30T03:30:05.872Z,4.85
2023-03-30T03:32:39.092Z,4.88
2023-03-30T03:35:06.187Z,4.25
2023-03-30T03:37:34.445Z,4.78
2023-03-30T03:40:01.409Z,4.78
2023-03-30T03:42:29.038Z,4.40
2023-03-30T03:45:11.624Z,5.20
2023-03-30T03:47:51.721Z,4.82
2023-03-30T03:50:23.864Z,4.60
2023-03-30T03:52:51.989Z,5.15
2023-03-30T03:55:18.961Z,5.20
2023-03-30T03:57:49.695Z,4.30
2023-03-30T04:00:16.758Z,4.55
2023-03-30T04:02:46.906Z,4.45
2023-03-30T04:05:13.844Z,4.60
2023-03-30T04:07:40.691Z,4.38
2023-03-30T04:10:08.146Z,4.72
2023-03-30T04:12:44.075Z,4.43
2023-03-30T04:15:45.629Z,4.57
2023-03-30T04:18:33.698Z,4.45
2023-03-30T04:21:13.470Z,4.72
2023-03-30T04:23:58.762Z,4.70
2023-03-30T04:26:49.128Z,5.38
2023-03-30T04:29:29.996Z,5.55
2023-03-30T04:32:20.854Z,5.38
2023-03-30T04:34:56.049Z,4.97
2023-03-30T04:37:38.589Z,5.80
2023-03-30T04:40:17.680Z,5.35
2023-03-30T04:43:04.769Z,5.50
2023-03-30T04:45:48.534Z,5.10
2023-03-30T04:48:33.070Z,5.78
2023-03-30T04:51:09.023Z,5.82
2023-03-30T04:53:54.452Z,5.93
2023-03-30T04:56:41.027Z,5.97
2023-03-30T04:59:37.900Z,5.45
2023-03-30T05:02:37.335Z,6.40
2023-03-30T05:05:07.570Z,6.85
2023-03-30T05:08:06.782Z,6.18
2023-03-30T05:10:47.342Z,6.85
2023-03-30T05:13:26.136Z,6.63
2023-03-30T05:16:05.510Z,7.05
2023-03-30T05:19:04.814Z,7.05
2023-03-30T05:21:49.657Z,6.97
2023-03-30T05:24:34.667Z,6.72
2023-03-30T05:27:33.966Z,7.03
2023-03-30T05:30:23.668Z,7.22
2023-03-30T05:33:10.325Z,6.75
2023-03-30T05:36:09.994Z,6.78
2023-03-30T05:38:48.150Z,6.43
2023-03-30T05:41:31.921Z,6.97
2023-03-30T05:44:11.521Z,6.72
2023-03-30T05:47:10.672Z,6.15
2023-03-30T05:50:03.242Z,6.88
2023-03-30T05:52:36.661Z,6.40
2023-03-30T05:55:24.179Z,7.38
2023-03-30T05:58:12.282Z,6.07
2023-03-30T06:01:06.152Z,6.18
2023-03-30T06:03:39.431Z,6.35
2023-03-30T06:06:08.349Z,6.68
2023-03-30T06:08:35.885Z,7.20
2023-03-30T06:11:05.091Z,7.30
2023-03-30T06:13:43.336Z,6.07
2023-03-30T06:16:10.257Z,6.95
2023-03-30T06:18:37.961Z,6.63
2023-03-30T06:21:08.569Z,7.07
2023-03-30T06:23:49.759Z,6.82
2023-03-30T06:26:20.756Z,6.97
2023-03-30T06:28:48.688Z,6.63
2023-03-30T06:31:15.667Z,6.82
2023-03-30T06:33:43.810Z,7.03
2023-03-30T06:36:15.016Z,7.70
2023-03-30T06:38:44.948Z,6.78
2023-03-30T06:41:12.958Z,6.72
2023-03-30T06:43:43.360Z,6.60
2023-03-30T06:46:16.085Z,6.30
2023-03-30T06:48:48.686Z,6.97
2023-03-30T06:51:50.996Z,6.03
2023-03-30T06:54:20.537Z,6.88
2023-03-30T06:56:54.968Z,5.65
2023-03-30T06:59:23.268Z,5.70
2023-03-30T07:02:22.445Z,5.47
2023-03-30T07:05:03.282Z,5.70
2023-03-30T07:07:43.316Z,5.20
2023-03-30T07:10:11.819Z,5.45
2023-03-30T07:12:39.879Z,6.03
2023-03-30T07:15:08.265Z,5.07
2023-03-30T07:17:36.621Z,4.80
2023-03-30T07:20:06.149Z,4.57
2023-03-30T07:22:34.985Z,4.18
2023-03-30T07:25:02.095Z,4.90
2023-03-30T07:27:29.406Z,4.13
2023-03-30T07:30:07.200Z,4.43
2023-03-30T07:32:41.874Z,5.28
2023-03-30T07:35:09.689Z,3.90
2023-03-30T07:37:40.183Z,4.18
2023-03-30T07:40:09.303Z,3.47
2023-03-30T07:42:37.367Z,3.80
2023-03-30T07:45:05.325Z,3.65
2023-03-30T07:47:32.420Z,3.50
2023-03-30T07:49:59.394Z,3.15
2023-03-30T07:52:27.731Z,2.97
2023-03-30T07:55:01.942Z,2.90
2023-03-30T07:57:42.565Z,3.15
2023-03-30T08:00:17.084Z,3.10
2023-03-30T08:03:04.967Z,2.92
2023-03-30T08:05:32.025Z,3.05
2023-03-30T08:08:19.320Z,2.72
2023-03-30T08:10:47.395Z,2.85
2023-03-30T08:13:15.350Z,2.45
2023-03-30T08:15:43.550Z,2.28
2023-03-30T08:18:13.173Z,2.20
2023-03-30T08:20:41.710Z,2.28
2023-03-30T08:23:12.249Z,2.22
2023-03-30T08:25:39.270Z,2.30
2023-03-30T08:28:09.255Z,2.00
2023-03-30T08:30:36.072Z,2.30
2023-03-30T08:33:03.437Z,1.90
2023-03-30T08:35:30.503Z,2.15
2023-03-30T08:37:57.388Z,2.95
2023-03-30T08:40:24.400Z,2.45
2023-03-30T08:43:21.620Z,1.90
2023-03-30T08:45:48.607Z,1.60
2023-03-30T08:48:23.934Z,1.70
2023-03-30T08:50:57.491Z,1.92
2023-03-30T08:53:24.614Z,2.03
2023-03-30T08:56:00.109Z,2.30
2023-03-30T08:58:45.406Z,2.65
2023-03-30T09:01:21.715Z,1.95
2023-03-30T09:04:19.585Z,1.90
2023-03-30T09:06:59.666Z,1.77
2023-03-30T09:09:29.529Z,2.28
2023-03-30T09:12:02.842Z,2.05
2023-03-30T09:14:36.592Z,2.08
2023-03-30T09:17:18.939Z,1.80
2023-03-30T09:19:51.100Z,1.70
2023-03-30T09:22:19.035Z,2.40
2023-03-30T09:24:46.553Z,2.05
2023-03-30T09:27:27.272Z,2.00
2023-03-30T09:29:56.061Z,1.85
2023-03-30T09:32:34.327Z,2.08
2023-03-30T09:35:12.208Z,1.95
2023-03-30T09:37:39.111Z,2.10
2023-03-30T09:40:21.344Z,1.75
2023-03-30T09:42:55.687Z,1.80
2023-03-30T09:45:30.733Z,2.10
2023-03-30T09:48:08.906Z,2.10
2023-03-30T09:50:44.593Z,2.00
2023-03-30T09:53:27.121Z,1.70
2023-03-30T09:56:12.917Z,1.70
2023-03-30T09:58:39.704Z,1.88
2023-03-30T10:01:08.624Z,2.13
2023-03-30T10:03:36.200Z,2.00
2023-03-30T10:06:03.343Z,1.88
2023-03-30T10:08:31.007Z,2.05
2023-03-30T10:10:59.025Z,1.73
2023-03-30T10:13:39.236Z,2.28
2023-03-30T10:16:08.728Z,2.10
2023-03-30T10:18:44.260Z,2.10
2023-03-30T10:21:13.960Z,1.80
2023-03-30T10:23:43.341Z,1.80
2023-03-30T10:26:17.861Z,1.90
2023-03-30T10:29:01.412Z,1.70
2023-03-30T10:31:28.538Z,2.00
2023-03-30T10:33:58.423Z,1.70
2023-03-30T10:36:31.173Z,1.98
2023-03-30T10:39:25.944Z,1.73
2023-03-30T10:41:53.175Z,2.10
2023-03-30T10:44:29.002Z,2.78
2023-03-30T10:47:08.376Z,2.25
2023-03-30T10:49:44.830Z,2.08
2023-03-30T10:52:51.996Z,2.25
2023-03-30T10:55:33.715Z,1.85
2023-03-30T10:58:09.932Z,2.08
2023-03-30T11:00:51.282Z,1.55
2023-03-30T11:03:22.442Z,1.80
2023-03-30T11:05:51.910Z,1.63
2023-03-30T11:08:23.405Z,1.70
2023-03-30T11:10:54.032Z,2.20
2023-03-30T11:13:27.944Z,1.92
2023-03-30T11:15:57.573Z,1.85
2023-03-30T11:18:44.719Z,2.33
2023-03-30T11:21:22.212Z,2.40
2023-03-30T11:23:54.905Z,2.33
2023-03-30T11:26:34.903Z,2.10
2023-03-30T11:29:37.119Z,2.08
2023-03-30T11:32:38.609Z,2.20
2023-03-30T11:35:20.957Z,2.42
2023-03-30T11:38:01.786Z,1.77
2023-03-30T11:40:34.698Z,2.13
2023-03-30T11:43:01.880Z,1.90
2023-03-30T11:45:36.492Z,2.45
2023-03-30T11:48:13.409Z,2.20
2023-03-30T11:51:02.248Z,1.90
2023-03-30T11:53:35.783Z,2.13
2023-03-30T11:56:17.583Z,2.33
2023-03-30T11:58:48.058Z,2.40
2023-03-30T12:01:33.643Z,2.00
2023-03-30T12:04:08.499Z,1.77
2023-03-30T12:06:39.019Z,1.83
2023-03-30T12:09:06.216Z,2.20
2023-03-30T12:11:54.926Z,1.70
2023-03-30T12:14:43.242Z,1.60
2023-03-30T12:17:45.684Z,1.92
2023-03-30T12:20:22.178Z,1.48
2023-03-30T12:23:10.840Z,1.55
2023-03-30T12:26:04.183Z,1.63
2023-03-30T12:31:56.250Z,2.08
2023-03-30T12:34:24.683Z,2.08
2023-03-30T12:36:56.448Z,3.13
2023-03-30T12:39:31.341Z,3.33
2023-03-30T12:42:07.412Z,2.20
2023-03-30T12:44:42.977Z,3.08
2023-03-30T12:47:31.295Z,2.63
2023-03-30T12:50:02.666Z,1.95
2023-03-30T12:53:04.071Z,1.90
2023-03-30T12:55:41.949Z,2.75
2023-03-30T12:58:50.397Z,1.90
2023-03-30T13:01:40.491Z,2.10
2023-03-30T13:04:10.890Z,2.30
2023-03-30T13:06:40.772Z,1.70
2023-03-30T13:09:16.790Z,2.10
2023-03-30T13:11:46.342Z,2.15
2023-03-30T13:14:17.270Z,2.65
2023-03-30T13:16:53.492Z,2.13
2023-03-30T13:19:32.604Z,1.75
2023-03-30T13:22:11.910Z,2.30
2023-03-30T13:24:42.028Z,1.88
2023-03-30T13:27:14.823Z,2.13
2023-03-30T13:29:42.768Z,2.10
2023-03-30T13:32:20.778Z,2.33
2023-03-30T13:35:06.039Z,1.98
2023-03-30T13:38:01.701Z,2.00
2023-03-30T13:40:39.622Z,2.03
2023-03-30T13:43:22.634Z,2.03
2023-03-30T13:46:09.253Z,2.45
2023-03-30T13:48:47.582Z,1.38
2023-03-30T13:51:20.849Z,1.55
2023-03-30T13:53:53.357Z,1.75
2023-03-30T13:56:21.233Z,1.65
2023-03-30T13:59:03.908Z,1.52
2023-03-30T14:01:31.029Z,1.52
2023-03-30T14:04:03.909Z,1.38
2023-03-30T14:06:34.570Z,1.50
2023-03-30T14:09:05.690Z,1.90
2023-03-30T14:11:47.321Z,1.58
2023-03-30T14:14:30.028Z,1.80
2023-03-30T14:17:01.042Z,1.38
2023-03-30T14:19:29.843Z,1.83
2023-03-30T14:21:59.911Z,2.00
2023-03-30T14:24:34.682Z,1.70
2023-03-30T14:27:03.735Z,2.08
2023-03-30T14:29:32.495Z,1.58
2023-03-30T14:32:08.239Z,1.90
2023-03-30T14:34:36.244Z,1.90
2023-03-30T14:37:08.702Z,1.95
2023-03-30T14:39:41.248Z,1.63
2023-03-30T14:42:19.133Z,1.83
2023-03-30T14:44:48.487Z,2.13
2023-03-30T14:47:16.662Z,1.95
2023-03-30T14:49:44.494Z,3.00
2023-03-30T14:52:18.968Z,1.63
2023-03-30T14:54:58.157Z,1.65
2023-03-30T14:57:34.946Z,2.28
2023-03-30T15:00:11.341Z,1.80
2023-03-30T15:02:41.766Z,1.70
2023-03-30T15:05:09.306Z,1.67
2023-03-30T15:07:36.617Z,1.90
2023-03-30T15:10:04.470Z,1.60
2023-03-30T15:12:39.254Z,1.55
2023-03-30T15:15:08.540Z,1.60
2023-03-30T15:17:36.906Z,1.58
2023-03-30T15:20:07.596Z,1.80
2023-03-30T15:22:40.348Z,1.83
2023-03-30T15:25:11.673Z,1.70
2023-03-30T15:27:39.690Z,1.67
2023-03-30T15:30:21.871Z,1.42
2023-03-30T15:32:48.765Z,1.50
2023-03-30T15:35:15.428Z,1.60
2023-03-30T15:38:13.884Z,1.77
2023-03-30T15:40:43.294Z,1.40
2023-03-30T15:43:27.271Z,1.77
2023-03-30T15:46:15.584Z,2.25
2023-03-30T15:48:50.550Z,2.17
2023-03-30T15:51:27.588Z,1.50
2023-03-30T15:54:15.784Z,2.30
2023-03-30T15:57:11.359Z,1.92
2023-03-30T15:59:43.161Z,2.08
2023-03-30T16:02:40.274Z,1.60
2023-03-30T16:05:12.643Z,1.98
2023-03-30T16:07:42.136Z,2.03
2023-03-30T16:10:16.849Z,2.20
2023-03-30T16:12:44.947Z,2.13
2023-03-30T16:15:17.251Z,2.45
2023-03-30T16:17:44.037Z,2.05
2023-03-30T16:20:21.441Z,2.67
2023-03-30T16:22:48.624Z,1.83
2023-03-30T16:25:16.919Z,2.67
2023-03-30T16:27:44.255Z,2.13
2023-03-30T16:30:29.555Z,2.15
2023-03-30T16:32:56.540Z,2.08
2023-03-30T16:35:23.537Z,2.60
2023-03-30T16:37:50.750Z,2.30
2023-03-30T16:40:41.535Z,2.17
2023-03-30T16:43:09.643Z,2.22
2023-03-30T16:45:36.623Z,3.17
2023-03-30T16:48:03.790Z,2.85
2023-03-30T16:50:37.863Z,2.35
2023-03-30T16:53:05.860Z,2.75
2023-03-30T16:55:33.172Z,2.88
2023-03-30T16:57:59.999Z,2.60
2023-03-30T17:00:30.138Z,2.55
2023-03-30T17:02:57.294Z,2.85
2023-03-30T17:05:24.526Z,3.05
2023-03-30T17:07:55.113Z,3.42
2023-03-30T17:10:31.335Z,2.63
2023-03-30T17:12:58.336Z,3.53
2023-03-30T17:15:26.142Z,2.83
2023-03-30T17:17:53.775Z,2.80
2023-03-30T17:20:21.244Z,2.72
2023-03-30T17:22:48.749Z,2.80
2023-03-30T17:25:15.701Z,3.08
2023-03-30T17:27:43.198Z,2.88
2023-03-30T17:30:23.814Z,2.40
2023-03-30T17:32:51.328Z,2.80
2023-03-30T17:35:18.722Z,2.50
2023-03-30T17:37:46.208Z,2.72
2023-03-30T17:40:16.816Z,3.00
2023-03-30T17:42:44.164Z,2.80
2023-03-30T17:45:12.581Z,2.83
2023-03-30T17:47:41.560Z,2.97
2023-03-30T17:50:25.659Z,2.65
2023-03-30T17:52:53.513Z,2.90
2023-03-30T17:55:22.709Z,2.75
2023-03-30T17:57:49.637Z,2.78
2023-03-30T18:00:23.471Z,3.13
2023-03-30T18:02:51.938Z,3.35
2023-03-30T18:05:20.526Z,2.88
2023-03-30T18:07:47.874Z,3.20
2023-03-30T18:10:25.109Z,2.95
2023-03-30T18:12:52.951Z,3.42
2023-03-30T18:15:25.456Z,3.58
2023-03-30T18:17:53.024Z,3.08
2023-03-30T18:20:22.280Z,3.40
2023-03-30T18:22:51.415Z,3.30
2023-03-30T18:25:29.699Z,2.97
2023-03-30T18:28:00.871Z,3.53
2023-03-30T18:30:38.408Z,3.90
2023-03-30T18:33:05.811Z,3.40
2023-03-30T18:35:34.780Z,3.10
2023-03-30T18:38:02.435Z,3.35
2023-03-30T18:40:45.578Z,3.80
2023-03-30T18:43:13.725Z,4.22
2023-03-30T18:45:43.008Z,3.47
2023-03-30T18:48:14.707Z,4.20
2023-03-30T18:50:47.292Z,4.03
2023-03-30T18:53:26.398Z,3.60
2023-03-30T18:55:54.964Z,3.50
2023-03-30T18:58:24.441Z,3.85
2023-03-30T19:00:53.319Z,3.63
2023-03-30T19:03:21.863Z,3.65
2023-03-30T19:05:49.516Z,3.47
2023-03-30T19:08:18.884Z,3.90
2023-03-30T19:10:49.371Z,3.47
2023-03-30T19:13:18.543Z,3.28
2023-03-30T19:15:46.391Z,3.53
2023-03-30T19:18:14.084Z,3.95
2023-03-30T19:20:42.056Z,3.90
2023-03-30T19:23:11.885Z,3.28
2023-03-30T19:25:39.145Z,2.10
2023-03-30T19:28:06.788Z,1.90
2023-03-30T19:30:37.482Z,1.10
2023-03-30T19:33:12.410Z,1.20
2023-03-30T19:35:41.171Z,0.60
2023-03-30T19:38:09.685Z,0.80
2023-03-30T19:40:40.176Z,0.77
2023-03-30T19:43:07.955Z,0.70
2023-03-30T19:45:35.031Z,0.68
2023-03-30T19:48:02.073Z,0.57
2023-03-30T19:50:30.410Z,0.50
2023-03-30T19:52:57.734Z,0.40
2023-03-30T19:55:24.619Z,0.50
2023-03-30T19:57:51.509Z,0.80
2023-03-30T20:00:19.986Z,0.47
2023-03-30T20:02:49.602Z,0.68
2023-03-30T20:05:17.072Z,0.68
2023-03-30T20:07:44.913Z,0.80
2023-03-30T20:10:14.922Z,0.88
2023-03-30T20:12:42.318Z,0.77
2023-03-30T20:15:10.061Z,1.00
2023-03-30T20:17:38.964Z,1.10
2023-03-30T20:20:08.908Z,1.13
2023-03-30T20:22:37.011Z,0.60
2023-03-30T20:25:05.922Z,0.90
2023-03-30T20:27:33.961Z,0.75
2023-03-30T20:30:01.273Z,0.80
2023-03-30T20:32:28.409Z,0.80
2023-03-30T20:34:55.456Z,0.90
2023-03-30T20:37:22.386Z,0.82
2023-03-30T20:39:52.123Z,1.00
2023-03-30T20:42:26.492Z,1.42
2023-03-30T20:44:53.722Z,1.70
2023-03-30T20:47:26.261Z,1.08
2023-03-30T20:49:55.990Z,1.08
2023-03-30T20:52:24.140Z,1.10
2023-03-30T20:54:52.769Z,1.15
2023-03-30T20:57:20.913Z,0.80
2023-03-30T20:59:48.385Z,1.20
2023-03-30T21:02:15.888Z,0.90
2023-03-30T21:04:44.726Z,1.10
2023-03-30T21:07:12.516Z,1.20
2023-03-30T21:09:39.607Z,1.38
2023-03-30T21:12:07.960Z,1.20
2023-03-30T21:14:34.793Z,1.30
2023-03-30T21:17:01.949Z,1.50
2023-03-30T21:19:29.061Z,1.35
2023-03-30T21:21:56.056Z,1.27
2023-03-30T21:24:22.882Z,1.20
2023-03-30T21:26:51.053Z,1.60
2023-03-30T21:29:18.370Z,1.17
2023-03-30T21:31:45.327Z,1.52
2023-03-30T21:34:13.138Z,1.55
2023-03-30T21:36:41.175Z,1.95
2023-03-30T21:39:08.459Z,1.30
2023-03-30T21:41:35.470Z,1.90
2023-03-30T21:44:02.485Z,1.80
2023-03-30T21:46:29.394Z,1.73
2023-03-30T21:48:56.334Z,1.70
2023-03-30T21:51:28.720Z,1.65
2023-03-30T21:53:57.224Z,1.80
2023-03-30T21:56:26.316Z,2.08
2023-03-30T21:58:53.441Z,1.83
2023-03-30T22:01:20.965Z,1.83
2023-03-30T22:03:48.020Z,2.20
2023-03-30T22:06:17.452Z,1.80
2023-03-30T22:08:45.642Z,1.67
2023-03-30T22:11:14.721Z,1.98
2023-03-30T22:13:41.683Z,1.75
2023-03-30T22:16:22.764Z,2.15
2023-03-30T22:18:50.545Z,2.03
2023-03-30T22:21:24.777Z,1.90
2023-03-30T22:23:52.986Z,2.78
2023-03-30T22:26:19.957Z,1.98
2023-03-30T22:28:46.851Z,2.20
2023-03-30T22:31:15.173Z,2.33
2023-03-30T22:33:44.373Z,2.28
2023-03-30T22:36:20.683Z,2.30
2023-03-30T22:38:51.475Z,2.25
2023-03-30T22:41:24.074Z,2.00
2023-03-30T22:43:52.121Z,2.10
2023-03-30T22:46:19.095Z,1.90
2023-03-30T22:48:45.897Z,2.15
2023-03-30T22:51:14.515Z,2.63
2023-03-30T22:53:41.470Z,2.20
2023-03-30T22:56:08.549Z,2.33
2023-03-30T22:58:36.536Z,1.92
2023-03-30T23:01:07.269Z,2.38
2023-03-30T23:03:34.212Z,2.20
2023-03-30T23:06:01.935Z,2.10
2023-03-30T23:08:30.318Z,2.22
2023-03-30T23:10:57.713Z,1.98
2023-03-30T23:13:24.524Z,2.15
2023-03-30T23:15:52.244Z,1.92
2023-03-30T23:18:19.050Z,1.98
2023-03-30T23:20:46.934Z,2.38
2023-03-30T23:23:14.525Z,1.85
2023-03-30T23:25:49.590Z,2.15
2023-03-30T23:28:16.928Z,2.22
2023-03-30T23:30:45.124Z,1.90
2023-03-30T23:33:12.325Z,1.90
2023-03-30T23:35:40.336Z,1.90
2023-03-30T23:38:10.329Z,2.10
2023-03-30T23:40:37.132Z,1.80
2023-03-30T23:43:03.919Z,1.90
2023-03-30T23:45:30.683Z,1.85
2023-03-30T23:47:57.538Z,1.80
2023-03-30T23:50:25.334Z,1.50
2023-03-30T23:52:52.819Z,1.52
2023-03-30T23:55:19.656Z,1.38
2023-03-30T23:57:46.982Z,1.45
